Time;durP1;ratioP1;P1;durP2;ratioP2;P2;SDS_P1;SDS_P2;PMS_P1;PMS_P2;Temp;Humidity;BMP_temperature;BMP_pressure;BME280_temperature;BME280_humidity;BME280_pressure;Samples;Min_cycle;Max_cycle;Signal;HPM_P1;HPM_P2
2021/10/12 00:00:37;;;;;;;;;;;;;;;15.92;60.37;101102.72;4981681;28;103620;-84
2021/10/12 00:03:04;;;;;;;;;;;;;;;15.93;60.67;101106.28;4978739;28;102406;-84
2021/10/12 00:05:31;;;;;;;;;;;;;;;15.93;60.39;101101.59;4977132;28;105293;-86
2021/10/12 00:07:57;;;;;;;;;;;;;;;15.93;60.30;101101.59;4981398;28;102550;-87
2021/10/12 00:10:23;;;;;;;;;;;;;;;15.93;60.39;101096.09;4974960;28;102554;-89
2021/10/12 00:12:50;;;;;;;;;;;;;;;15.93;60.34;101089.81;4978135;28;102359;-88
2021/10/12 00:15:16;;;;;;;;;;;;;;;15.93;60.44;101085.13;4978836;28;104179;-90
2021/10/12 00:17:42;;;;;;;;;;;;;;;15.93;60.58;101087.88;4980681;28;102308;-89
2021/10/12 00:20:09;;;;;;;;;;;;;;;15.93;60.43;101087.88;4978841;28;102171;-80
2021/10/12 00:22:36;;;;;;;;;;;;;;;15.93;60.85;101087.88;4982521;28;102639;-80
2021/10/12 00:25:03;;;;;;;;;;;;;;;15.93;60.40;101082.38;4974642;28;103904;-80
2021/10/12 00:27:30;;;;;;;;;;;;;;;15.93;60.72;101068.66;4977472;28;102263;-81
2021/10/12 00:29:56;;;;;;;;;;;;;;;15.93;60.67;101063.16;4986702;28;102887;-81
2021/10/12 00:32:22;;;;;;;;;;;;;;;15.93;60.93;101062.34;4981282;28;102188;-81
2021/10/12 00:34:48;;;;;;;;;;;;;;;15.93;60.66;101063.16;4981799;28;104177;-87
2021/10/12 00:37:15;;;;;;;;;;;;;;;15.92;60.96;101056.06;4982218;28;102036;-85
2021/10/12 00:39:43;;;;;;;;;;;;;;;15.92;60.93;101056.06;4977378;28;102668;-85
2021/10/12 00:42:09;;;;;;;;;;;;;;;15.92;61.01;101050.56;4978381;28;102457;-85
2021/10/12 00:44:35;;;;;;;;;;;;;;;15.94;60.43;101047.50;4976763;28;103976;-86
2021/10/12 00:47:01;;;;;;;;;;;;;;;15.93;61.04;101051.38;4977992;28;102160;-83
2021/10/12 00:49:27;;;;;;;;;;;;;;;15.92;60.78;101047.81;4984182;28;102225;-86
2021/10/12 00:51:53;;;;;;;;;;;;;;;15.94;60.87;101042.84;4984616;28;103761;-85
2021/10/12 00:54:20;;;;;;;;;;;;;;;15.93;61.03;101041.22;4974350;28;104104;-85
2021/10/12 00:56:47;;;;;;;;;;;;;;;15.93;61.00;101035.72;4969430;28;102191;-81
2021/10/12 00:59:14;;;;;;;;;;;;;;;15.93;60.99;101038.47;4975890;28;102642;-81
2021/10/12 01:01:41;;;;;;;;;;;;;;;15.93;61.10;101040.41;4975051;28;102318;-80
2021/10/12 01:04:09;;;;;;;;;;;;;;;15.92;61.03;101034.09;4976735;28;103931;-81
2021/10/12 01:06:35;;;;;;;;;;;;;;;15.94;61.01;101037.38;4972103;28;102376;-80
2021/10/12 01:09:02;;;;;;;;;;;;;;;15.93;60.62;101041.22;4972258;28;102587;-80
2021/10/12 01:11:31;;;;;;;;;;;;;;;15.93;60.51;101035.72;4970956;28;102683;-80
2021/10/12 01:14:05;;;;;;;;;;;;;;;15.92;60.60;101028.59;4972508;28;104166;-80
2021/10/12 01:16:31;;;;;;;;;;;;;;;15.94;60.58;101022.81;4978459;28;102622;-85
2021/10/12 01:18:58;;;;;;;;;;;;;;;15.93;60.91;101027.47;4968061;28;102065;-85
2021/10/12 01:21:26;;;;;;;;;;;;;;;15.94;60.70;101020.91;4972954;28;102646;-85
2021/10/12 01:23:53;;;;;;;;;;;;;;;15.93;60.66;101013.75;4968933;28;104118;-85
2021/10/12 01:26:19;;;;;;;;;;;;;;;15.93;61.14;101022.00;4970460;28;102442;-87
2021/10/12 01:28:45;;;;;;;;;;;;;;;15.93;61.02;101016.50;4976601;28;102836;-86
2021/10/12 01:31:13;;;;;;;;;;;;;;;15.93;60.62;101019.25;4977552;28;102482;-86
2021/10/12 01:33:39;;;;;;;;;;;;;;;15.93;60.78;101019.25;4976329;28;103963;-87
2021/10/12 01:36:05;;;;;;;;;;;;;;;15.94;60.69;101015.41;4973333;28;102897;-80
2021/10/12 01:38:33;;;;;;;;;;;;;;;15.92;60.95;101012.13;4976188;28;102147;-80
2021/10/12 01:40:59;;;;;;;;;;;;;;;15.93;61.22;101013.75;4972571;28;102691;-80
2021/10/12 01:43:25;;;;;;;;;;;;;;;15.93;61.25;101013.75;4975762;28;103704;-80
2021/10/12 01:45:51;;;;;;;;;;;;;;;15.93;61.15;101013.75;4970050;28;105430;-81
2021/10/12 01:48:17;;;;;;;;;;;;;;;15.93;60.81;101007.47;4970871;28;102147;-80
2021/10/12 01:50:43;;;;;;;;;;;;;;;15.92;60.75;101012.13;4974563;28;103195;-79
2021/10/12 01:53:09;;;;;;;;;;;;;;;15.94;60.69;101011.81;4964305;28;104010;-80
2021/10/12 01:55:37;;;;;;;;;;;;;;;15.94;60.81;101012.66;4975470;28;102353;-85
2021/10/12 01:58:03;;;;;;;;;;;;;;;15.93;61.12;101008.28;4987939;28;102224;-85
2021/10/12 02:00:29;;;;;;;;;;;;;;;15.94;60.84;101003.59;4983705;28;102241;-85
2021/10/12 02:02:56;;;;;;;;;;;;;;;15.93;60.72;101008.28;4969424;28;104050;-85
2021/10/12 02:05:22;;;;;;;;;;;;;;;15.94;60.79;101003.59;4968518;28;102409;-85
2021/10/12 02:07:48;;;;;;;;;;;;;;;15.94;60.86;101009.91;4962315;28;102615;-85
2021/10/12 02:10:17;;;;;;;;;;;;;;;15.93;60.91;100997.28;4971863;28;103261;-79
2021/10/12 02:12:46;;;;;;;;;;;;;;;15.94;60.86;101004.44;4976980;28;103924;-89
2021/10/12 02:15:12;;;;;;;;;;;;;;;15.93;61.23;100997.28;4973652;28;102631;-89
2021/10/12 02:17:38;;;;;;;;;;;;;;;15.93;60.87;101002.78;4976873;28;102196;-89
2021/10/12 02:20:06;;;;;;;;;;;;;;;15.94;61.09;100998.94;4977710;28;102492;-90
2021/10/12 02:22:32;;;;;;;;;;;;;;;15.94;61.15;100992.63;4976453;28;104393;-84
2021/10/12 02:24:59;;;;;;;;;;;;;;;15.93;61.30;101000.03;4977225;28;102722;-85
2021/10/12 02:27:25;;;;;;;;;;;;;;;15.93;61.25;100991.81;4961425;28;103011;-85
2021/10/12 02:29:52;;;;;;;;;;;;;;;15.94;60.89;100989.88;4975517;28;102591;-85
2021/10/12 02:32:19;;;;;;;;;;;;;;;15.93;61.02;100986.31;4976186;28;103922;-80
2021/10/12 02:34:45;;;;;;;;;;;;;;;15.93;61.32;100980.00;4991981;28;102564;-80
2021/10/12 02:37:12;;;;;;;;;;;;;;;15.93;61.13;100983.56;4982223;28;102428;-80
2021/10/12 02:39:38;;;;;;;;;;;;;;;15.93;61.08;100975.34;4986878;28;102580;-79
2021/10/12 02:42:04;;;;;;;;;;;;;;;15.93;60.92;100972.59;4985220;28;103929;-79
2021/10/12 02:44:30;;;;;;;;;;;;;;;15.93;60.93;100971.78;4979048;28;103470;-80
2021/10/12 02:46:58;;;;;;;;;;;;;;;15.93;61.30;100964.34;4978385;28;102380;-80
2021/10/12 02:49:24;;;;;;;;;;;;;;;15.93;60.87;100952.56;4981314;28;102446;-80
2021/10/12 02:51:50;;;;;;;;;;;;;;;15.93;60.89;100953.38;4978206;28;103907;-80
2021/10/12 02:54:16;;;;;;;;;;;;;;;15.92;61.16;100953.69;4977794;28;102395;-80
2021/10/12 02:56:43;;;;;;;;;;;;;;;15.92;61.37;100951.75;4975452;28;102190;-79
2021/10/12 02:59:09;;;;;;;;;;;;;;;15.93;61.24;100939.66;4986243;28;104281;-80
2021/10/12 03:01:35;;;;;;;;;;;;;;;15.92;61.45;100946.25;4973491;28;104155;-79
2021/10/12 03:04:03;;;;;;;;;;;;;;;15.92;61.22;100950.94;4975444;28;105466;-80
2021/10/12 03:06:29;;;;;;;;;;;;;;;15.92;61.21;100946.25;4976436;28;102418;-81
2021/10/12 03:08:55;;;;;;;;;;;;;;;15.91;61.61;100955.63;4979397;28;102232;-80
2021/10/12 03:11:21;;;;;;;;;;;;;;;15.92;61.50;100959.19;4977264;28;103882;-85
2021/10/12 03:13:47;;;;;;;;;;;;;;;15.91;61.50;100950.13;4975351;28;102131;-86
2021/10/12 03:16:13;;;;;;;;;;;;;;;15.92;61.38;100950.94;4976909;28;102389;-86
2021/10/12 03:18:40;;;;;;;;;;;;;;;15.91;61.14;100950.13;4979371;28;102156;-86
2021/10/12 03:21:07;;;;;;;;;;;;;;;15.92;61.41;100956.44;4988312;28;103720;-86
2021/10/12 03:23:34;;;;;;;;;;;;;;;15.91;61.09;100961.13;4987252;28;102421;-86
2021/10/12 03:26:01;;;;;;;;;;;;;;;15.92;61.05;100949.00;4978335;28;102241;-87
2021/10/12 03:28:28;;;;;;;;;;;;;;;15.92;61.34;100949.00;4979320;28;102229;-86
2021/10/12 03:30:55;;;;;;;;;;;;;;;15.91;61.40;100944.66;4975127;28;103888;-86
2021/10/12 03:33:21;;;;;;;;;;;;;;;15.91;61.41;100950.13;4979993;28;102720;-87
2021/10/12 03:35:55;;;;;;;;;;;;;;;15.91;61.50;100944.66;4980922;28;102217;-86
2021/10/12 03:38:23;;;;;;;;;;;;;;;15.91;61.50;100938.34;4979952;28;102279;-87
2021/10/12 03:40:49;;;;;;;;;;;;;;;15.91;61.51;100930.91;4974105;28;103953;-86
2021/10/12 03:43:16;;;;;;;;;;;;;;;15.92;60.91;100939.97;4973093;28;103370;-86
2021/10/12 03:45:42;;;;;;;;;;;;;;;15.91;61.20;100936.41;4983159;28;102417;-80
2021/10/12 03:48:08;;;;;;;;;;;;;;;15.92;61.36;100934.47;4972582;28;102264;-80
2021/10/12 03:50:34;;;;;;;;;;;;;;;15.90;60.94;100921.03;4966086;28;104179;-81
2021/10/12 03:53:01;;;;;;;;;;;;;;;15.91;61.33;100924.63;4971129;28;102555;-80
2021/10/12 03:55:29;;;;;;;;;;;;;;;15.91;60.94;100922.69;4973736;28;102264;-80
2021/10/12 03:57:55;;;;;;;;;;;;;;;15.91;61.32;100919.94;4983054;28;102342;-79
2021/10/12 04:00:21;;;;;;;;;;;;;;;15.90;61.18;100915.53;4968980;28;107744;-81
2021/10/12 04:02:48;;;;;;;;;;;;;;;15.90;61.03;100929.28;4971413;28;102111;-81
2021/10/12 04:05:15;;;;;;;;;;;;;;;15.90;61.48;100918.28;4994757;28;102185;-81
2021/10/12 04:07:42;;;;;;;;;;;;;;;15.91;61.25;100938.34;4966905;28;102462;-81
2021/10/12 04:10:08;;;;;;;;;;;;;;;15.90;61.56;100932.00;4994306;28;103873;-80
2021/10/12 04:12:36;;;;;;;;;;;;;;;15.90;61.01;100923.78;4976467;28;102270;-80
2021/10/12 04:15:02;;;;;;;;;;;;;;;15.90;61.49;100926.53;4981310;28;102155;-80
2021/10/12 04:17:28;;;;;;;;;;;;;;;15.90;61.08;100926.53;4990743;28;102297;-81
2021/10/12 04:19:54;;;;;;;;;;;;;;;15.91;61.48;100924.63;4990476;28;104093;-81
2021/10/12 04:22:23;;;;;;;;;;;;;;;15.90;61.14;100925.72;4983213;28;102801;-81
2021/10/12 04:24:50;;;;;;;;;;;;;;;15.90;61.50;100920.22;4978273;28;102799;-80
2021/10/12 04:27:17;;;;;;;;;;;;;;;15.89;61.31;100913.94;4983513;28;103453;-85
2021/10/12 04:29:44;;;;;;;;;;;;;;;15.90;61.07;100915.53;4978184;28;104890;-86
2021/10/12 04:32:11;;;;;;;;;;;;;;;15.90;61.53;100907.31;4983018;28;102508;-85
2021/10/12 04:34:37;;;;;;;;;;;;;;;15.90;61.17;100910.06;4986862;28;102425;-86
2021/10/12 04:37:04;;;;;;;;;;;;;;;15.90;61.47;100907.31;4982183;28;102233;-86
2021/10/12 04:39:30;;;;;;;;;;;;;;;15.89;61.32;100902.94;4983456;28;103901;-85
2021/10/12 04:41:58;;;;;;;;;;;;;;;15.90;60.92;100907.31;4977578;28;102359;-87
2021/10/12 04:44:24;;;;;;;;;;;;;;;15.90;61.37;100906.50;4975137;28;102329;-80
2021/10/12 04:46:52;;;;;;;;;;;;;;;15.90;61.55;100898.28;4978016;28;102394;-85
2021/10/12 04:49:18;;;;;;;;;;;;;;;15.90;61.02;100899.09;4986788;28;103892;-86
2021/10/12 04:51:44;;;;;;;;;;;;;;;15.90;60.86;100904.56;4977283;28;102567;-87
2021/10/12 04:54:10;;;;;;;;;;;;;;;15.90;61.08;100907.31;4981309;28;102131;-86
2021/10/12 04:56:36;;;;;;;;;;;;;;;15.89;61.03;100911.19;4990205;28;102679;-87
2021/10/12 04:59:03;;;;;;;;;;;;;;;15.90;61.30;100915.53;4978962;28;104123;-86
2021/10/12 05:01:30;;;;;;;;;;;;;;;15.90;61.56;100910.06;4977422;28;102555;-86
2021/10/12 05:03:58;;;;;;;;;;;;;;;15.89;61.63;100919.41;4977637;28;102613;-80
2021/10/12 05:06:24;;;;;;;;;;;;;;;15.90;61.61;100921.03;4988159;28;102258;-87
2021/10/12 05:08:51;;;;;;;;;;;;;;;15.89;61.46;100919.41;4984503;28;103845;-85
2021/10/12 05:11:17;;;;;;;;;;;;;;;15.89;61.15;100919.41;4986639;28;102181;-85
2021/10/12 05:13:44;;;;;;;;;;;;;;;15.89;61.34;100913.13;4975233;28;102306;-86
2021/10/12 05:16:12;;;;;;;;;;;;;;;15.90;61.14;100915.53;4979515;28;102158;-85
2021/10/12 05:18:41;;;;;;;;;;;;;;;15.89;61.41;100913.94;4975431;28;103831;-85
2021/10/12 05:21:08;;;;;;;;;;;;;;;15.89;61.65;100902.94;4978128;28;102344;-85
2021/10/12 05:23:38;;;;;;;;;;;;;;;15.89;61.33;100902.94;4975973;28;102334;-85
2021/10/12 05:26:05;;;;;;;;;;;;;;;15.90;61.56;100904.56;4970474;28;102167;-84
2021/10/12 05:28:33;;;;;;;;;;;;;;;15.90;61.38;100909.25;4976030;28;103750;-84
2021/10/12 05:30:59;;;;;;;;;;;;;;;15.89;61.48;100908.44;4982234;28;102613;-85
2021/10/12 05:33:25;;;;;;;;;;;;;;;15.89;61.60;100908.44;4976839;28;102264;-85
2021/10/12 05:35:52;;;;;;;;;;;;;;;15.90;61.27;100893.59;4977211;28;102357;-85
2021/10/12 05:38:19;;;;;;;;;;;;;;;15.89;61.67;100886.47;4974776;28;103719;-85
2021/10/12 05:40:47;;;;;;;;;;;;;;;15.90;61.76;100881.81;4976484;28;102737;-86
2021/10/12 05:43:13;;;;;;;;;;;;;;;15.90;61.63;100898.28;4977952;28;101977;-80
2021/10/12 05:45:39;;;;;;;;;;;;;;;15.89;61.31;100896.66;4981361;28;102207;-80
2021/10/12 05:48:10;;;;;;;;;;;;;;;15.88;61.38;100901.34;4983488;28;104072;-80
2021/10/12 05:50:37;;;;;;;;;;;;;;;15.89;61.20;100905.69;4978725;28;103922;-80
2021/10/12 05:55:51;;;;;;;;;;;;;;;15.89;61.22;100918.59;4966142;28;102091;-80
2021/10/12 05:58:43;;;;;;;;;;;;;;;15.88;61.67;100927.97;4982085;28;103930;-80
2021/10/12 06:01:09;;;;;;;;;;;;;;;15.87;61.25;100932.66;4969452;28;103131;-80
2021/10/12 06:03:36;;;;;;;;;;;;;;;15.89;61.49;100932.31;4969337;28;102556;-79
2021/10/12 06:06:02;;;;;;;;;;;;;;;15.90;61.67;100931.19;4972874;28;102299;-80
2021/10/12 06:08:33;;;;;;;;;;;;;;;15.88;61.54;100931.53;4971795;28;103966;-80
2021/10/12 06:11:02;;;;;;;;;;;;;;;15.89;61.73;100941.38;4976344;28;102153;-81
2021/10/12 06:13:28;;;;;;;;;;;;;;;15.89;61.75;100946.88;4972443;28;103672;-80
2021/10/12 06:15:56;;;;;;;;;;;;;;;15.89;61.66;100935.06;4973928;28;103679;-80
2021/10/12 06:18:22;;;;;;;;;;;;;;;15.89;61.48;100933.13;4978729;28;103941;-88
2021/10/12 06:20:50;;;;;;;;;;;;;;;15.89;61.82;100930.41;4968682;28;102134;-80
2021/10/12 06:23:16;;;;;;;;;;;;;;;15.89;61.43;100913.94;4966542;28;103478;-80
2021/10/12 06:25:43;;;;;;;;;;;;;;;15.90;61.77;100914.75;4970447;28;102432;-80
2021/10/12 06:28:15;;;;;;;;;;;;;;;15.89;61.41;100924.91;4969519;28;104093;-80
2021/10/12 06:30:41;;;;;;;;;;;;;;;15.90;61.85;100923.78;4968822;28;102473;-81
2021/10/12 06:33:07;;;;;;;;;;;;;;;15.91;61.47;100924.63;4980127;28;102130;-81
2021/10/12 06:35:33;;;;;;;;;;;;;;;15.90;61.63;100918.28;4982458;28;102435;-82
2021/10/12 06:38:00;;;;;;;;;;;;;;;15.90;61.86;100909.25;4970399;28;104081;-82
2021/10/12 06:40:27;;;;;;;;;;;;;;;15.90;61.74;100915.53;4969242;28;102251;-82
2021/10/12 06:42:53;;;;;;;;;;;;;;;15.89;61.45;100908.44;4966398;28;102512;-81
2021/10/12 06:45:21;;;;;;;;;;;;;;;15.90;61.85;100912.81;4975011;28;102325;-82
2021/10/12 06:47:47;;;;;;;;;;;;;;;15.90;61.42;100907.31;4977246;28;103931;-82
2021/10/12 06:50:14;;;;;;;;;;;;;;;15.90;61.38;100903.75;4974357;28;102388;-81
2021/10/12 06:52:40;;;;;;;;;;;;;;;15.90;61.82;100904.56;4975532;28;102562;-81
2021/10/12 06:55:08;;;;;;;;;;;;;;;15.90;61.39;100896.34;4965934;28;102602;-82
2021/10/12 06:57:34;;;;;;;;;;;;;;;15.90;61.47;100893.59;4967673;28;104263;-82
2021/10/12 07:00:00;;;;;;;;;;;;;;;15.89;61.42;100886.47;4975586;28;102086;-87
2021/10/12 07:02:28;;;;;;;;;;;;;;;15.90;61.80;100887.28;4978249;28;103812;-87
2021/10/12 07:04:54;;;;;;;;;;;;;;;15.90;61.62;100893.59;4966015;28;102188;-85
2021/10/12 07:07:20;;;;;;;;;;;;;;;15.89;61.46;100891.97;4977590;28;103152;-86
2021/10/12 07:09:46;;;;;;;;;;;;;;;15.89;61.63;100891.16;4980826;28;102273;-86
2021/10/12 07:12:12;;;;;;;;;;;;;;;15.89;61.87;100891.97;4975043;28;102207;-85
2021/10/12 07:14:39;;;;;;;;;;;;;;;15.89;61.34;100891.97;4984138;28;102352;-86
2021/10/12 07:17:05;;;;;;;;;;;;;;;15.90;61.49;100881.81;4967805;28;103957;-86
2021/10/12 07:19:33;;;;;;;;;;;;;;;15.89;61.76;100886.47;4970476;28;102008;-82
2021/10/12 07:21:59;;;;;;;;;;;;;;;15.89;61.49;100891.16;4970593;28;103349;-82
2021/10/12 07:24:25;;;;;;;;;;;;;;;15.88;61.74;100893.09;4974639;28;102278;-81
2021/10/12 07:26:53;;;;;;;;;;;;;;;15.89;61.53;100886.47;4976515;28;103763;-82
2021/10/12 07:29:19;;;;;;;;;;;;;;;15.90;61.92;100890.03;4977788;28;102097;-82
2021/10/12 07:31:45;;;;;;;;;;;;;;;15.89;61.58;100888.41;4981861;28;102146;-82
2021/10/12 07:34:12;;;;;;;;;;;;;;;15.89;62.02;100888.41;4971121;28;102431;-81
2021/10/12 07:36:39;;;;;;;;;;;;;;;15.89;62.01;100891.97;4978907;28;103999;-86
2021/10/12 07:39:06;;;;;;;;;;;;;;;15.90;61.64;100895.53;4977886;28;102276;-86
2021/10/12 07:41:35;;;;;;;;;;;;;;;15.88;61.67;100901.34;4979461;28;102216;-86
2021/10/12 07:44:01;;;;;;;;;;;;;;;15.90;61.72;100899.09;4979964;28;102605;-86
2021/10/12 07:46:27;;;;;;;;;;;;;;;15.90;61.94;100892.78;4977570;28;102927;-86
2021/10/12 07:48:56;;;;;;;;;;;;;;;15.89;62.04;100897.47;4970100;28;102240;-86
2021/10/12 07:51:22;;;;;;;;;;;;;;;15.89;62.12;100891.97;4977576;28;102033;-86
2021/10/12 07:53:51;;;;;;;;;;;;;;;15.90;61.67;100887.28;4983408;28;102116;-84
2021/10/12 07:56:27;;;;;;;;;;;;;;;15.89;61.90;100886.47;4973398;28;104226;-87
2021/10/12 07:58:53;;;;;;;;;;;;;;;15.89;61.71;100881.00;4980299;28;102110;-86
2021/10/12 08:01:19;;;;;;;;;;;;;;;15.89;61.73;100871.94;4971695;28;102871;-86
2021/10/12 08:03:46;;;;;;;;;;;;;;;15.89;61.51;100872.75;4972250;28;102272;-86
2021/10/12 08:06:12;;;;;;;;;;;;;;;15.89;62.11;100870.00;4976240;28;102995;-86
2021/10/12 08:08:38;;;;;;;;;;;;;;;15.89;61.56;100867.28;4982743;28;102746;-86
2021/10/12 08:11:07;;;;;;;;;;;;;;;15.89;61.83;100859.03;4978973;28;102109;-86
2021/10/12 08:13:35;;;;;;;;;;;;;;;15.88;61.54;100849.19;4980384;28;102300;-87
2021/10/12 08:16:09;;;;;;;;;;;;;;;15.90;61.61;100855.16;4981996;28;104232;-87
2021/10/12 08:18:35;;;;;;;;;;;;;;;15.89;61.95;100848.06;4982087;28;101946;-86
2021/10/12 08:21:01;;;;;;;;;;;;;;;15.90;61.86;100848.88;4986137;28;102372;-86
2021/10/12 08:23:27;;;;;;;;;;;;;;;15.89;61.72;100848.06;4980015;28;102638;-87
2021/10/12 08:25:54;;;;;;;;;;;;;;;15.89;62.22;100842.56;4979513;28;103906;-86
2021/10/12 08:28:22;;;;;;;;;;;;;;;15.89;61.95;100845.31;4979344;28;102059;-86
2021/10/12 08:30:48;;;;;;;;;;;;;;;15.90;61.80;100843.38;4977132;28;102478;-87
2021/10/12 08:33:15;;;;;;;;;;;;;;;15.90;62.22;100829.66;4973361;28;103161;-81
2021/10/12 08:35:41;;;;;;;;;;;;;;;15.90;61.76;100827.72;4972472;28;103971;-82
2021/10/12 08:38:07;;;;;;;;;;;;;;;15.90;62.06;100827.72;4983000;28;102202;-82
2021/10/12 08:40:34;;;;;;;;;;;;;;;15.92;62.21;100835.66;4970843;28;102245;-82
2021/10/12 08:43:00;;;;;;;;;;;;;;;15.92;62.03;100830.19;4970608;28;102403;-81
2021/10/12 08:45:29;;;;;;;;;;;;;;;15.92;62.35;100820.00;4980911;28;104449;-82
2021/10/12 08:47:57;;;;;;;;;;;;;;;15.92;62.24;100821.94;4974023;28;102575;-82
2021/10/12 08:50:24;;;;;;;;;;;;;;;15.92;62.37;100813.72;4975574;28;102772;-83
2021/10/12 08:52:51;;;;;;;;;;;;;;;15.93;61.75;100807.91;4973862;28;103023;-82
2021/10/12 08:55:17;;;;;;;;;;;;;;;15.95;62.27;100802.13;4974251;28;104067;-85
2021/10/12 08:57:46;;;;;;;;;;;;;;;15.94;62.26;100798.56;4969254;28;102214;-86
2021/10/12 09:00:13;;;;;;;;;;;;;;;15.94;62.19;100790.34;4973027;28;102402;-85
2021/10/12 09:02:57;;;;;;;;;;;;;;;15.94;62.23;100790.34;4968871;28;102807;-86
2021/10/12 09:05:24;;;;;;;;;;;;;;;15.96;62.40;100787.28;4970598;28;103846;-85
2021/10/12 09:07:50;;;;;;;;;;;;;;;15.97;61.98;100784.22;4973757;28;102387;-86
2021/10/12 09:10:19;;;;;;;;;;;;;;;15.97;61.78;100781.47;4982660;28;102362;-83
2021/10/12 09:12:45;;;;;;;;;;;;;;;15.97;62.28;100780.66;4983528;28;102240;-86
2021/10/12 09:15:12;;;;;;;;;;;;;;;15.97;62.02;100781.47;4975316;28;103909;-85
2021/10/12 09:17:39;;;;;;;;;;;;;;;15.97;61.86;100773.22;4978419;28;103322;-85
2021/10/12 09:20:20;;;;;;;;;;;;;;;15.98;61.88;100763.09;4973422;28;102099;-85
2021/10/12 09:25:44;;;;;;;;;;;;;;;15.99;61.78;100765.53;5037436;27;102308;-52
2021/10/12 09:28:21;;;;;;;;;;;;;;;15.99;61.82;100760.03;5012885;27;102566;-52
2021/10/12 09:30:47;;;;;;;;;;;;;;;16.00;62.14;100760.84;4994493;28;104085;-52
2021/10/12 09:33:14;;;;;;;;;;;;;;;16.00;62.15;100758.91;4991533;28;102202;-52
2021/10/12 09:35:41;;;;;;;;;;;;;;;16.01;61.64;100763.28;4991229;28;102962;-52
2021/10/12 09:38:08;;;;;;;;;;;;;;;16.01;62.02;100757.81;4994285;28;102536;-52
2021/10/12 09:40:35;;;;;;;;;;;;;;;16.03;62.07;100754.75;4989130;28;104182;-52
2021/10/12 09:43:03;;;;;;;;;;;;;;;16.03;62.10;100750.06;4991690;28;102136;-52
2021/10/12 09:45:33;;;;;;;;;;;;;;;16.03;61.84;100750.06;4988018;28;102472;-52
2021/10/12 09:47:59;;;;;;;;;;;;;;;16.04;61.88;100745.38;4990302;28;102327;-52
2021/10/12 09:50:30;;;;;;;;;;;;;;;16.01;61.82;100724.88;4985361;28;104348;-52
2021/10/12 09:52:56;;;;;;;;;;;;;;;16.03;61.87;100743.75;4988901;28;103773;-52
2021/10/12 09:55:33;;;;;;;;;;;;;;;16.03;61.71;100733.59;4990476;28;102163;-52
2021/10/12 09:57:59;;;;;;;;;;;;;;;16.03;62.05;100730.84;4992022;28;103316;-52
2021/10/12 10:00:27;;;;;;;;;;;;;;;16.03;61.75;100736.34;4990516;28;103941;-52
2021/10/12 10:02:54;;;;;;;;;;;;;;;16.05;61.81;100738.78;4983701;28;102411;-52
2021/10/12 10:05:20;;;;;;;;;;;;;;;16.04;62.11;100735.19;4981035;28;102195;-52
2021/10/12 10:07:48;;;;;;;;;;;;;;;16.04;62.16;100735.19;4983348;28;102194;-53
2021/10/12 10:10:15;;;;;;;;;;;;;;;16.05;61.66;100731.38;4988920;28;103907;-52
2021/10/12 10:12:41;;;;;;;;;;;;;;;16.05;62.09;100734.09;4988846;28;102191;-52
2021/10/12 10:15:08;;;;;;;;;;;;;;;16.04;61.83;100718.72;4990115;28;102411;-52
2021/10/12 10:17:35;;;;;;;;;;;;;;;16.05;61.63;100725.88;5005559;28;102301;-52
2021/10/12 10:20:03;;;;;;;;;;;;;;;16.06;61.74;100727.50;4989538;28;104021;-52
2021/10/12 10:22:41;;;;;;;;;;;;;;;16.05;61.74;100719.56;4992523;28;102275;-52
2021/10/12 10:25:23;;;;;;;;;;;;;;;16.05;62.12;100698.41;5023438;28;102635;-52
2021/10/12 10:27:49;;;;;;;;;;;;;;;16.04;61.54;100702.25;5030208;28;102297;-52
2021/10/12 10:30:23;;;;;;;;;;;;;;;16.04;62.07;100707.75;5020455;28;103881;-52
2021/10/12 10:32:51;;;;;;;;;;;;;;;16.04;61.75;100702.25;5030393;28;102416;-53
2021/10/12 10:35:31;;;;;;;;;;;;;;;16.04;61.51;100695.97;5026747;28;102088;-52
2021/10/12 10:38:19;;;;;;;;;;;;;;;16.05;62.01;100700.34;5017652;28;102313;-52
2021/10/12 10:40:46;;;;;;;;;;;;;;;16.04;61.68;100702.25;5016426;28;103952;-52
2021/10/12 10:43:13;;;;;;;;;;;;;;;16.05;61.52;100697.63;5017236;28;103040;-52
2021/10/12 10:45:46;;;;;;;;;;;;;;;16.04;62.04;100685.78;5009549;28;102321;-52
2021/10/12 10:48:15;;;;;;;;;;;;;;;16.05;62.02;100692.94;5015862;28;102613;-52
2021/10/12 10:50:41;;;;;;;;;;;;;;;16.04;61.62;100677.56;5011036;28;104060;-52
2021/10/12 10:53:10;;;;;;;;;;;;;;;16.04;61.94;100677.56;5014002;28;102153;-52
2021/10/12 10:55:37;;;;;;;;;;;;;;;16.04;61.75;100672.06;5012556;28;102485;-52
2021/10/12 10:58:04;;;;;;;;;;;;;;;16.05;62.06;100667.41;5015838;28;102512;-52
2021/10/12 11:00:38;;;;;;;;;;;;;;;16.05;61.49;100660.00;5015681;28;104371;-52
2021/10/12 11:03:04;;;;;;;;;;;;;;;16.05;61.92;100659.19;5015758;28;102536;-52
2021/10/12 11:05:39;;;;;;;;;;;;;;;16.05;61.89;100654.50;5014387;28;102231;-52
2021/10/12 11:08:09;;;;;;;;;;;;;;;16.04;61.96;100658.34;5006378;28;102251;-52
2021/10/12 11:10:36;;;;;;;;;;;;;;;16.05;61.55;100649.00;5017103;28;107789;-52
2021/10/12 11:13:02;;;;;;;;;;;;;;;16.06;61.62;100649.81;5009252;28;102885;-53
2021/10/12 11:15:28;;;;;;;;;;;;;;;16.05;61.98;100653.69;5012384;28;102407;-52
2021/10/12 11:18:07;;;;;;;;;;;;;;;16.04;61.63;100641.88;5012514;28;102471;-52
2021/10/12 11:20:42;;;;;;;;;;;;;;;16.05;61.49;100645.44;5006464;28;104072;-52
2021/10/12 11:23:08;;;;;;;;;;;;;;;16.04;61.39;100641.06;5010618;28;102426;-52
2021/10/12 11:25:36;;;;;;;;;;;;;;;16.05;61.93;100631.72;5011870;28;102724;-52
2021/10/12 11:28:06;;;;;;;;;;;;;;;16.04;61.58;100624.59;5019013;28;102225;-52
2021/10/12 11:30:34;;;;;;;;;;;;;;;16.04;61.42;100619.91;5013497;28;104079;-52
2021/10/12 11:33:01;;;;;;;;;;;;;;;16.04;61.44;100610.88;5011020;28;102488;-52
2021/10/12 11:35:31;;;;;;;;;;;;;;;16.04;61.52;100616.34;5010351;28;102170;-53
2021/10/12 11:37:59;;;;;;;;;;;;;;;16.04;61.14;100610.88;5014738;28;102517;-52
2021/10/12 11:40:25;;;;;;;;;;;;;;;16.03;61.57;100612.00;5009690;28;102993;-52
2021/10/12 11:42:52;;;;;;;;;;;;;;;16.04;61.39;100617.16;5014285;28;102186;-52
2021/10/12 11:45:19;;;;;;;;;;;;;;;16.03;61.37;100612.00;5009293;28;102229;-52
2021/10/12 11:47:45;;;;;;;;;;;;;;;16.04;61.91;100605.38;5010905;28;102452;-52
2021/10/12 11:50:12;;;;;;;;;;;;;;;16.02;61.79;100594.72;5010809;28;102957;-52
2021/10/12 11:52:38;;;;;;;;;;;;;;;16.03;61.75;100596.34;5008938;28;101980;-52
2021/10/12 11:55:06;;;;;;;;;;;;;;;16.03;61.99;100598.28;5014855;28;102194;-53
2021/10/12 11:57:33;;;;;;;;;;;;;;;16.04;61.43;100599.88;5013898;28;102683;-52
2021/10/12 11:59:59;;;;;;;;;;;;;;;16.03;61.45;100590.03;5015921;28;103909;-52
2021/10/12 12:02:28;;;;;;;;;;;;;;;16.02;61.82;100583.75;5013659;28;102506;-52
2021/10/12 12:04:57;;;;;;;;;;;;;;;16.03;61.77;100590.84;5014021;28;102398;-52
2021/10/12 12:07:23;;;;;;;;;;;;;;;16.01;61.69;100584.88;5014884;28;102470;-52
2021/10/12 12:09:50;;;;;;;;;;;;;;;16.03;61.90;100596.34;5013882;28;103882;-52
2021/10/12 12:12:18;;;;;;;;;;;;;;;16.02;61.79;100583.75;5016539;28;102553;-52
2021/10/12 12:14:48;;;;;;;;;;;;;;;16.03;61.41;100590.03;5013576;28;102204;-52
2021/10/12 12:17:17;;;;;;;;;;;;;;;16.03;61.92;100590.03;5014183;28;103548;-52
2021/10/12 12:19:44;;;;;;;;;;;;;;;16.03;61.55;100595.53;5011428;28;103990;-52
2021/10/12 12:22:11;;;;;;;;;;;;;;;16.04;61.97;100581.47;5011099;28;102388;-52
2021/10/12 12:24:37;;;;;;;;;;;;;;;16.04;61.65;100581.47;5009980;28;102153;-53
2021/10/12 12:27:04;;;;;;;;;;;;;;;16.03;61.86;100581.81;5010399;28;102760;-52
2021/10/12 12:29:31;;;;;;;;;;;;;;;16.03;61.88;100574.38;5010840;28;103951;-52
2021/10/12 12:31:58;;;;;;;;;;;;;;;16.03;61.90;100566.16;5014925;28;102275;-52
2021/10/12 12:34:26;;;;;;;;;;;;;;;16.04;61.78;100570.50;5007108;28;103916;-52